METAR Data
IDs: Format: Raw Decoded Include TAF

Data at: 1215 UTC 17 Sep 2019

METAR for:TISX (St Croix/Rohlsen Arp, --, VI)
Text:TISX 171153Z 08012KT 10SM FEW022 29/24 A2994 RMK AO2 SLP136 60000 70029 T02890239 10289 20250 51013
Temperature: 28.9°C ( 84°F)
Dewpoint: 23.9°C ( 75°F) [RH = 74%]
Pressure (altimeter):29.94 inches Hg (1014.0 mb) [Sea level pressure: 1013.6 mb]
Winds:from the E (80 degrees) at 14 MPH (12 knots; 6.2 m/s)
Visibility:10 or more sm (16+ km)
Ceiling:at least 12,000 feet AGL
Clouds: few clouds at 2200 feet AGL